Phelan, California
Current Conditions -  °F | °C
As of 6:55 PM on Saturday 25 Oct 2014 (Local Time) from KGXA Reporting Station
Clear Clear  
Wind Chill: 69°   Ceiling: Unl
Heat Index: 69°   Visibility: 10mi
Dew Point: 40°   Wind: 8mph
Humidity: 35%   Direction: 270°W
Pressure: 30.04"   Gusts: NA
Location:  34.43°N, 117.57°W
Report Text: KGXA 260155Z AUTO 27007KT 10SM CLR 20/04 A3004 RMK AO2 PK WND 27061/0148 SLP157 T02030044 TSNO $
Loading
Personal Weather Stations






























Interactive Weather Map
Tropical Storm Tracking
New forecast layout! Learn more

10-Day Weather Forecast

Advertisements
Track Severe Weather on mobile